Time;durP1;ratioP1;P1;durP2;ratioP2;P2;SDS_P1;SDS_P2;PMS_P1;PMS_P2;Temp;Humidity;BMP_temperature;BMP_pressure;BME280_temperature;BME280_humidity;BME280_pressure;Samples;Min_cycle;Max_cycle;Signal;HPM_P1;HPM_P2
2021/10/22 00:00:13;;;;;;;2.57;1.70;;;9.60;99.90;;;;;;5053409;28;20240;-60
2021/10/22 00:02:40;;;;;;;2.93;1.63;;;9.60;99.90;;;;;;5053277;28;20201;-61
2021/10/22 00:05:07;;;;;;;2.57;1.97;;;9.50;99.90;;;;;;5052936;28;20202;-60
2021/10/22 00:07:34;;;;;;;2.87;1.80;;;9.40;99.90;;;;;;5052860;28;20622;-61
2021/10/22 00:10:01;;;;;;;3.60;1.67;;;9.30;99.90;;;;;;5052709;28;20225;-60
2021/10/22 00:12:29;;;;;;;2.17;1.60;;;9.20;99.90;;;;;;5053074;28;20271;-60
2021/10/22 00:14:55;;;;;;;2.00;1.80;;;9.10;99.90;;;;;;5052577;28;20695;-61
2021/10/22 00:17:22;;;;;;;2.63;1.80;;;8.80;99.90;;;;;;5052793;28;20210;-62
2021/10/22 00:19:51;;;;;;;3.60;2.00;;;8.80;99.90;;;;;;5052525;28;20275;-62
2021/10/22 00:22:18;;;;;;;2.73;2.10;;;8.80;99.90;;;;;;5052904;28;20202;-62
2021/10/22 00:24:44;;;;;;;2.17;1.93;;;8.70;99.90;;;;;;5052713;28;20228;-62
2021/10/22 00:27:11;;;;;;;3.77;1.90;;;8.70;99.90;;;;;;5052564;28;20206;-62
2021/10/22 00:29:39;;;;;;;2.67;2.03;;;8.70;99.90;;;;;;5052396;28;20225;-62
2021/10/22 00:32:07;;;;;;;3.53;2.10;;;8.80;99.90;;;;;;5052527;28;20209;-62
2021/10/22 00:34:33;;;;;;;4.93;2.53;;;8.80;99.90;;;;;;5052340;28;20221;-62
2021/10/22 00:37:00;;;;;;;11.10;2.67;;;8.80;99.90;;;;;;5052859;28;20209;-59
2021/10/22 00:39:27;;;;;;;3.13;2.50;;;8.90;99.90;;;;;;5052951;28;20280;-61
2021/10/22 00:41:54;;;;;;;6.10;2.60;;;8.90;99.90;;;;;;5052738;28;20210;-61
2021/10/22 00:44:21;;;;;;;4.87;2.70;;;9.00;99.90;;;;;;5051405;28;20209;-60
2021/10/22 00:46:49;;;;;;;3.20;2.90;;;9.20;99.90;;;;;;5052069;28;20209;-60
2021/10/22 00:49:18;;;;;;;5.73;3.10;;;9.30;99.90;;;;;;5051793;28;20278;-61
2021/10/22 00:51:45;;;;;;;5.43;3.20;;;9.50;99.90;;;;;;5052239;28;20300;-61
2021/10/22 00:54:12;;;;;;;5.50;2.80;;;9.60;99.90;;;;;;5052002;28;20230;-61
2021/10/22 00:56:38;;;;;;;5.43;3.23;;;9.60;99.90;;;;;;5051902;28;20263;-61
2021/10/22 00:59:06;;;;;;;3.47;2.70;;;9.70;99.90;;;;;;5051547;28;20232;-61
2021/10/22 01:01:37;;;;;;;4.30;2.90;;;9.70;99.90;;;;;;5052129;28;20676;-61
2021/10/22 01:04:05;;;;;;;3.90;3.03;;;9.60;99.90;;;;;;5051640;28;20205;-61
2021/10/22 01:06:32;;;;;;;4.10;2.83;;;9.60;99.90;;;;;;5051804;28;20213;-61
2021/10/22 01:09:00;;;;;;;5.33;3.20;;;9.50;99.90;;;;;;5051642;28;20639;-61
2021/10/22 01:11:27;;;;;;;3.40;3.00;;;9.40;99.90;;;;;;5051733;28;20209;-61
2021/10/22 01:13:53;;;;;;;4.17;2.93;;;9.30;99.90;;;;;;5051444;28;20697;-61
2021/10/22 01:16:20;;;;;;;5.90;3.53;;;9.20;99.90;;;;;;5051460;28;20217;-61
2021/10/22 01:18:47;;;;;;;5.17;3.60;;;9.20;99.90;;;;;;5051215;28;20232;-61
2021/10/22 01:21:15;;;;;;;4.20;3.30;;;9.10;99.90;;;;;;5051462;28;20205;-61
2021/10/22 01:23:42;;;;;;;4.00;3.13;;;9.10;99.90;;;;;;5051828;28;20235;-61
2021/10/22 01:26:09;;;;;;;4.07;3.67;;;9.00;99.90;;;;;;5051699;28;20205;-61
2021/10/22 01:28:36;;;;;;;5.33;3.60;;;8.90;99.90;;;;;;5051316;28;20202;-61
2021/10/22 01:31:03;;;;;;;4.37;3.43;;;8.80;99.90;;;;;;5051294;28;20583;-61
2021/10/22 01:33:30;;;;;;;6.97;3.83;;;8.70;99.90;;;;;;5051227;28;20205;-61
2021/10/22 01:35:57;;;;;;;6.13;4.00;;;8.60;99.90;;;;;;5051329;28;20209;-61
2021/10/22 01:38:27;;;;;;;4.60;3.50;;;8.60;99.90;;;;;;5050955;28;20216;-61
2021/10/22 01:40:55;;;;;;;6.00;4.37;;;8.60;99.90;;;;;;5051322;28;20209;-61
2021/10/22 01:43:23;;;;;;;5.77;3.70;;;8.70;99.90;;;;;;5051085;28;20666;-63
2021/10/22 01:45:50;;;;;;;4.97;3.43;;;8.70;99.90;;;;;;5051092;28;20339;-61
2021/10/22 01:48:17;;;;;;;6.47;4.27;;;8.80;99.90;;;;;;5051628;28;20217;-61
2021/10/22 01:50:44;;;;;;;9.13;3.83;;;8.80;99.90;;;;;;5051495;28;20205;-61
2021/10/22 01:53:11;;;;;;;6.53;5.00;;;8.90;99.90;;;;;;5051588;28;20602;-61
2021/10/22 01:55:39;;;;;;;5.23;3.80;;;9.00;99.90;;;;;;5050892;28;20229;-61
2021/10/22 01:58:06;;;;;;;6.47;3.73;;;9.00;99.90;;;;;;5050746;28;20688;-61
2021/10/22 02:00:33;;;;;;;4.00;3.60;;;9.10;99.90;;;;;;5051309;28;20225;-61
2021/10/22 02:02:59;;;;;;;6.40;3.50;;;9.00;99.90;;;;;;5051179;28;20255;-61
2021/10/22 02:05:26;;;;;;;5.47;3.50;;;9.10;99.90;;;;;;5050843;28;20220;-61
2021/10/22 02:07:53;;;;;;;6.23;3.77;;;9.10;99.90;;;;;;5050602;28;20205;-61
2021/10/22 02:10:20;;;;;;;5.30;4.10;;;9.10;99.90;;;;;;5050867;28;20233;-61
2021/10/22 02:12:48;;;;;;;4.23;3.73;;;9.00;99.90;;;;;;5050646;28;20220;-61
2021/10/22 02:15:14;;;;;;;5.40;3.57;;;9.00;99.90;;;;;;5050724;28;20226;-61
2021/10/22 02:17:41;;;;;;;6.60;3.70;;;8.90;99.90;;;;;;5050966;28;20209;-61
2021/10/22 02:20:09;;;;;;;7.60;5.13;;;8.80;99.90;;;;;;5050647;28;20260;-61
2021/10/22 02:22:36;;;;;;;5.30;3.70;;;8.70;99.90;;;;;;5050560;28;20209;-61
2021/10/22 02:25:03;;;;;;;7.00;3.80;;;8.60;99.90;;;;;;5050446;28;20682;-61
2021/10/22 02:27:30;;;;;;;6.90;3.63;;;8.50;99.90;;;;;;5050554;28;20212;-61
2021/10/22 02:29:58;;;;;;;4.90;3.47;;;8.40;99.90;;;;;;5050584;28;20226;-61
2021/10/22 02:32:25;;;;;;;4.83;4.03;;;8.30;99.90;;;;;;5050800;28;20244;-61
2021/10/22 02:34:51;;;;;;;4.37;3.43;;;8.30;99.90;;;;;;5050441;28;20279;-61
2021/10/22 02:37:18;;;;;;;4.90;3.60;;;8.20;99.90;;;;;;5050561;28;20263;-61
2021/10/22 02:39:45;;;;;;;7.00;3.57;;;8.10;99.90;;;;;;5050308;28;20234;-61
2021/10/22 02:42:12;;;;;;;7.13;3.80;;;8.00;99.90;;;;;;5050458;28;20217;-61
2021/10/22 02:44:38;;;;;;;3.80;3.40;;;8.00;99.90;;;;;;5050593;28;20332;-60
2021/10/22 02:47:08;;;;;;;5.83;3.93;;;7.90;99.90;;;;;;5050727;28;20206;-61
2021/10/22 02:49:34;;;;;;;4.40;3.27;;;7.90;99.90;;;;;;5050511;28;20587;-61
2021/10/22 02:52:01;;;;;;;9.43;5.63;;;7.80;99.90;;;;;;5050620;28;20217;-61
2021/10/22 02:54:28;;;;;;;6.33;3.97;;;7.80;99.90;;;;;;5050049;28;20229;-61
2021/10/22 02:56:54;;;;;;;16.33;11.67;;;7.90;99.90;;;;;;5050523;28;20209;-61
2021/10/22 02:59:21;;;;;;;9.40;6.00;;;8.00;99.90;;;;;;5050106;28;20225;-61
2021/10/22 03:01:48;;;;;;;12.77;7.80;;;8.10;99.90;;;;;;5050677;28;20205;-61
2021/10/22 03:04:16;;;;;;;5.30;4.33;;;8.20;99.90;;;;;;5051457;28;20198;-61
2021/10/22 03:06:43;;;;;;;16.47;10.20;;;8.40;99.90;;;;;;5050493;28;20237;-61
2021/10/22 03:09:09;;;;;;;11.60;7.57;;;8.60;99.90;;;;;;5052882;28;20225;-61
2021/10/22 03:11:36;;;;;;;8.93;5.63;;;8.70;99.90;;;;;;5053965;28;20296;-61
2021/10/22 03:14:03;;;;;;;7.53;4.53;;;8.70;99.90;;;;;;5053732;28;20305;-62
2021/10/22 03:16:30;;;;;;;6.57;4.27;;;8.80;99.90;;;;;;5053949;28;20255;-62
2021/10/22 03:18:57;;;;;;;5.57;3.73;;;8.90;99.90;;;;;;5054052;28;20287;-61
2021/10/22 03:21:26;;;;;;;11.70;6.87;;;8.90;99.90;;;;;;5054025;28;20283;-61
2021/10/22 03:23:55;;;;;;;15.10;9.43;;;8.90;99.90;;;;;;5053929;28;20307;-61
2021/10/22 03:26:22;;;;;;;7.03;4.50;;;9.00;99.90;;;;;;5054108;28;20205;-62
2021/10/22 03:28:49;;;;;;;7.17;4.80;;;8.90;99.90;;;;;;5053898;28;20225;-62
2021/10/22 03:31:16;;;;;;;6.50;4.37;;;8.80;99.90;;;;;;5053596;28;20209;-62
2021/10/22 03:33:43;;;;;;;6.43;3.70;;;8.70;99.90;;;;;;5053439;28;21060;-61
2021/10/22 03:36:09;;;;;;;12.77;7.53;;;8.60;99.90;;;;;;5053392;28;20234;-61
2021/10/22 03:38:37;;;;;;;8.77;4.70;;;8.40;99.90;;;;;;5053176;28;20228;-61
2021/10/22 03:41:04;;;;;;;13.50;8.47;;;8.20;99.90;;;;;;5053509;28;20212;-61
2021/10/22 03:43:33;;;;;;;6.10;4.60;;;8.10;99.90;;;;;;5053471;28;20632;-61
2021/10/22 03:46:00;;;;;;;8.67;3.97;;;8.00;99.90;;;;;;5053399;28;20293;-61
2021/10/22 03:48:26;;;;;;;8.10;4.57;;;7.90;99.90;;;;;;5053531;28;20209;-61
2021/10/22 03:50:53;;;;;;;6.60;3.97;;;7.80;99.90;;;;;;5053468;28;20263;-61
2021/10/22 03:53:20;;;;;;;6.17;4.60;;;7.70;99.90;;;;;;5053402;28;20205;-61
2021/10/22 03:55:48;;;;;;;14.40;8.23;;;7.60;99.90;;;;;;5053095;28;20229;-60
2021/10/22 03:58:18;;;;;;;19.93;11.40;;;7.60;99.90;;;;;;5053198;28;20217;-60
2021/10/22 04:00:44;;;;;;;8.77;5.27;;;7.50;99.90;;;;;;5053440;28;20205;-61
2021/10/22 04:03:11;;;;;;;7.73;4.30;;;7.50;99.90;;;;;;5053125;28;20201;-61
2021/10/22 04:05:38;;;;;;;14.63;7.10;;;7.40;99.90;;;;;;5053178;28;20202;-61
2021/10/22 04:08:05;;;;;;;12.57;5.90;;;7.30;99.90;;;;;;5052717;28;20685;-61
2021/10/22 04:10:32;;;;;;;17.33;9.13;;;7.30;99.90;;;;;;5052759;28;20663;-61
2021/10/22 04:13:01;;;;;;;7.07;4.30;;;7.20;99.90;;;;;;5052687;28;20229;-61
2021/10/22 04:15:28;;;;;;;5.77;3.50;;;7.20;99.90;;;;;;5053037;28;20283;-61
2021/10/22 04:17:55;;;;;;;6.27;4.17;;;7.10;99.90;;;;;;5052382;28;20206;-61
2021/10/22 04:20:21;;;;;;;7.97;3.30;;;7.10;99.90;;;;;;5051400;28;20232;-62
2021/10/22 04:22:48;;;;;;;7.47;3.93;;;7.10;99.90;;;;;;5052705;28;20206;-60
2021/10/22 04:25:15;;;;;;;3.93;2.70;;;7.00;99.90;;;;;;5052678;28;20198;-61
2021/10/22 04:27:41;;;;;;;5.77;2.83;;;7.00;99.90;;;;;;5052563;28;20213;-61
2021/10/22 04:30:11;;;;;;;4.50;2.50;;;6.90;99.90;;;;;;5052479;28;20287;-61
2021/10/22 04:32:37;;;;;;;11.17;3.60;;;6.80;99.90;;;;;;5052447;28;20364;-61
2021/10/22 04:35:05;;;;;;;5.90;2.60;;;6.80;99.90;;;;;;5052245;28;20234;-61
2021/10/22 04:37:33;;;;;;;7.53;3.13;;;6.80;99.90;;;;;;5052232;28;20689;-62
2021/10/22 04:42:50;;;;;;;15.13;9.67;;;6.70;99.90;;;;;;5052091;28;20581;-61
2021/10/22 04:45:19;;;;;;;6.80;3.50;;;6.60;99.90;;;;;;5052157;28;20225;-60
2021/10/22 04:47:46;;;;;;;9.83;4.77;;;6.60;99.90;;;;;;5051905;28;20205;-61
2021/10/22 04:50:13;;;;;;;6.43;3.97;;;6.60;99.90;;;;;;5051672;28;20729;-62
2021/10/22 04:52:40;;;;;;;7.50;3.17;;;6.60;99.90;;;;;;5051749;28;20716;-61
2021/10/22 04:55:09;;;;;;;5.80;2.67;;;6.50;99.90;;;;;;5051682;28;20237;-61
2021/10/22 04:57:36;;;;;;;8.40;4.23;;;6.50;99.90;;;;;;5052157;28;20212;-61
2021/10/22 05:00:03;;;;;;;5.80;3.07;;;6.40;99.90;;;;;;5052008;28;20233;-61
2021/10/22 05:02:31;;;;;;;8.50;3.67;;;6.40;99.90;;;;;;5052029;28;20216;-60
2021/10/22 05:04:58;;;;;;;5.13;3.30;;;6.40;99.90;;;;;;5051650;28;20209;-61
2021/10/22 05:07:25;;;;;;;8.47;3.70;;;6.40;99.90;;;;;;5051803;28;20216;-61
2021/10/22 05:09:52;;;;;;;6.43;4.03;;;6.30;99.90;;;;;;5051268;28;20289;-60
2021/10/22 05:12:19;;;;;;;6.53;4.00;;;6.30;99.90;;;;;;5051303;28;20728;-60
2021/10/22 05:14:45;;;;;;;7.60;4.03;;;6.10;99.90;;;;;;5051387;28;20209;-62
2021/10/22 05:17:12;;;;;;;9.10;4.60;;;6.20;99.90;;;;;;5051467;28;20307;-59
2021/10/22 05:19:40;;;;;;;8.70;4.07;;;6.00;99.90;;;;;;5051172;28;20241;-60
2021/10/22 05:22:07;;;;;;;8.60;4.70;;;6.00;99.90;;;;;;5051363;28;20209;-59
2021/10/22 05:24:33;;;;;;;7.27;4.80;;;5.90;99.90;;;;;;5051771;28;20209;-60
2021/10/22 05:27:00;;;;;;;10.20;4.30;;;5.90;99.90;;;;;;5051870;28;20213;-60
2021/10/22 05:29:27;;;;;;;6.40;4.40;;;5.90;99.90;;;;;;5051603;28;20569;-59
2021/10/22 05:31:54;;;;;;;10.40;5.10;;;5.90;99.90;;;;;;5051480;28;20217;-60
2021/10/22 05:34:21;;;;;;;6.20;4.00;;;5.90;99.90;;;;;;5051361;28;20212;-60
2021/10/22 05:36:50;;;;;;;9.17;4.43;;;5.80;99.90;;;;;;5051218;28;20283;-60
2021/10/22 05:39:19;;;;;;;9.27;4.70;;;5.80;99.90;;;;;;5051108;28;20241;-59
2021/10/22 05:41:46;;;;;;;8.90;5.17;;;5.80;99.90;;;;;;5051554;28;20206;-62
2021/10/22 05:44:13;;;;;;;9.20;4.47;;;5.80;99.90;;;;;;5051174;28;20292;-61
2021/10/22 05:46:40;;;;;;;7.10;4.13;;;5.70;99.90;;;;;;5051077;28;20248;-61
2021/10/22 05:49:07;;;;;;;6.60;3.97;;;5.70;99.90;;;;;;5050988;28;20253;-62
2021/10/22 05:51:33;;;;;;;7.17;3.80;;;5.60;99.90;;;;;;5051004;28;20212;-60
2021/10/22 05:54:01;;;;;;;7.00;4.93;;;5.70;99.90;;;;;;5050990;28;20231;-59
2021/10/22 05:56:28;;;;;;;6.90;5.13;;;5.60;99.90;;;;;;5050879;28;20225;-61
2021/10/22 05:58:55;;;;;;;11.77;6.03;;;5.60;99.90;;;;;;5050868;28;20257;-60
2021/10/22 06:01:22;;;;;;;9.70;6.23;;;5.60;99.90;;;;;;5050481;28;20205;-60
2021/10/22 06:03:49;;;;;;;8.33;5.57;;;5.60;99.90;;;;;;5050831;28;20358;-60
2021/10/22 06:06:16;;;;;;;9.20;5.60;;;5.60;99.90;;;;;;5050792;28;20209;-60
2021/10/22 06:08:43;;;;;;;13.77;6.50;;;5.60;99.90;;;;;;5050646;28;20228;-60
2021/10/22 06:11:12;;;;;;;16.30;6.97;;;5.60;99.90;;;;;;5050697;28;20213;-59
2021/10/22 06:13:39;;;;;;;11.57;6.33;;;5.60;99.90;;;;;;5050859;28;20209;-59
2021/10/22 06:16:07;;;;;;;15.60;6.33;;;5.60;99.90;;;;;;5050567;28;20398;-60
2021/10/22 06:18:35;;;;;;;10.03;5.80;;;5.70;99.90;;;;;;5050336;28;20212;-60
2021/10/22 06:21:04;;;;;;;10.57;6.93;;;5.70;99.90;;;;;;5050693;28;20304;-61
2021/10/22 06:26:17;;;;;;;7.87;5.53;;;5.80;99.90;;;;;;5050629;28;20197;-61
2021/10/22 06:28:44;;;;;;;7.87;5.27;;;5.90;99.90;;;;;;5050423;28;20233;-61
2021/10/22 06:31:12;;;;;;;6.73;4.80;;;5.90;99.90;;;;;;5050371;28;20679;-61
2021/10/22 06:33:38;;;;;;;7.80;4.93;;;6.00;99.90;;;;;;5050663;28;20210;-60
2021/10/22 06:36:06;;;;;;;11.53;4.90;;;6.10;99.90;;;;;;5050960;28;20261;-60
2021/10/22 06:38:33;;;;;;;7.23;4.47;;;6.20;99.90;;;;;;5050346;28;20206;-60
2021/10/22 06:41:00;;;;;;;9.40;4.00;;;6.50;99.90;;;;;;5051031;28;20213;-60
2021/10/22 06:43:28;;;;;;;7.07;3.90;;;7.10;99.90;;;;;;5052125;28;20241;-62
2021/10/22 06:45:55;;;;;;;10.00;3.93;;;7.90;99.90;;;;;;5054294;28;20209;-62
2021/10/22 06:48:22;;;;;;;8.10;3.70;;;8.70;99.90;;;;;;5054097;28;20673;-62
2021/10/22 06:50:49;;;;;;;7.07;3.40;;;9.40;99.90;;;;;;5054311;28;20279;-62
2021/10/22 06:53:15;;;;;;;12.10;3.50;;;10.10;99.90;;;;;;5054524;28;20205;-62
2021/10/22 06:55:42;;;;;;;7.37;3.63;;;10.70;99.90;;;;;;5054047;28;20625;-62
2021/10/22 06:58:09;;;;;;;9.50;4.60;;;11.20;99.90;;;;;;5053940;28;20209;-62
2021/10/22 07:00:37;;;;;;;8.13;4.33;;;11.70;99.90;;;;;;5053771;28;20732;-62
2021/10/22 07:03:04;;;;;;;6.53;4.10;;;12.00;99.90;;;;;;5054114;28;20202;-61
2021/10/22 07:05:47;;;;;;;7.90;3.73;;;11.90;99.90;;;;;;5053943;28;20201;-62
2021/10/22 07:08:13;;;;;;;9.53;3.57;;;11.60;99.90;;;;;;5053948;28;20209;-62
2021/10/22 07:10:41;;;;;;;6.50;4.03;;;11.10;99.90;;;;;;5053891;28;20875;-61
2021/10/22 07:13:09;;;;;;;5.97;3.57;;;10.80;99.90;;;;;;5053825;28;20662;-62
2021/10/22 07:15:37;;;;;;;9.13;3.60;;;10.50;99.90;;;;;;5053720;28;20311;-62
2021/10/22 07:18:04;;;;;;;9.13;3.30;;;10.10;99.90;;;;;;5053806;28;20217;-62
2021/10/22 07:20:33;;;;;;;6.67;2.90;;;9.90;99.90;;;;;;5053720;28;20251;-61
2021/10/22 07:23:04;;;;;;;5.73;3.20;;;9.70;99.90;;;;;;5053638;28;20215;-62
2021/10/22 07:25:31;;;;;;;6.77;3.20;;;9.60;99.90;;;;;;5053681;28;20324;-63
2021/10/22 07:27:58;;;;;;;7.33;2.73;;;9.50;99.90;;;;;;5053946;28;20237;-62
2021/10/22 07:30:25;;;;;;;11.60;2.97;;;9.40;99.90;;;;;;5053432;28;20279;-62
2021/10/22 07:32:53;;;;;;;10.70;2.77;;;9.30;99.90;;;;;;5053624;28;20202;-62
2021/10/22 07:35:20;;;;;;;10.80;3.22;;;9.30;99.90;;;;;;5053029;28;20923;-60
2021/10/22 07:37:47;;;;;;;10.90;3.00;;;9.30;99.90;;;;;;5053658;28;20568;-64
2021/10/22 07:40:14;;;;;;;9.53;2.70;;;9.30;99.90;;;;;;5053954;28;20245;-64
2021/10/22 07:42:41;;;;;;;13.40;3.27;;;9.30;99.90;;;;;;5054373;28;20202;-63
2021/10/22 07:45:09;;;;;;;8.93;2.43;;;9.30;99.90;;;;;;5053419;28;20685;-69
2021/10/22 07:47:36;;;;;;;9.07;3.03;;;9.20;99.90;;;;;;5053808;28;20293;-65
2021/10/22 07:50:08;;;;;;;8.90;3.03;;;9.30;99.90;;;;;;5053296;28;20226;-66
2021/10/22 07:52:36;;;;;;;10.00;2.80;;;9.30;99.90;;;;;;5053388;28;20209;-61
2021/10/22 07:55:05;;;;;;;7.40;2.73;;;9.30;99.90;;;;;;5052913;28;20218;-61
2021/10/22 07:57:32;;;;;;;9.77;2.77;;;9.30;99.90;;;;;;5053225;28;20727;-63
2021/10/22 07:59:59;;;;;;;10.80;2.53;;;9.40;99.90;;;;;;5053213;28;20693;-61
2021/10/22 08:02:26;;;;;;;13.40;3.33;;;9.40;99.90;;;;;;5053084;28;20645;-60
2021/10/22 08:04:54;;;;;;;14.83;4.33;;;9.40;99.90;;;;;;5052848;28;20688;-61
2021/10/22 08:07:29;;;;;;;9.80;3.07;;;9.40;99.90;;;;;;5053091;28;20216;-63
2021/10/22 08:09:56;;;;;;;9.73;3.10;;;9.50;99.90;;;;;;5053059;28;20271;-65
2021/10/22 08:12:23;;;;;;;12.87;3.43;;;9.50;99.90;;;;;;5053080;28;20695;-65
2021/10/22 08:14:50;;;;;;;12.63;3.30;;;9.60;99.90;;;;;;5053062;28;20456;-65
2021/10/22 08:17:19;;;;;;;8.13;2.80;;;9.70;99.90;;;;;;5053067;28;20593;-66
2021/10/22 08:19:51;;;;;;;10.47;2.83;;;9.80;99.90;;;;;;5053566;28;20568;-68
2021/10/22 08:22:31;;;;;;;12.37;2.87;;;9.80;99.90;;;;;;5053012;28;20212;-66
2021/10/22 08:25:01;;;;;;;13.23;3.17;;;9.90;99.90;;;;;;5053167;28;20205;-70
2021/10/22 08:27:30;;;;;;;8.30;3.17;;;9.90;99.90;;;;;;5052704;28;20580;-64
2021/10/22 08:29:57;;;;;;;10.23;3.40;;;9.90;99.90;;;;;;5052918;28;20225;-68
2021/10/22 08:32:24;;;;;;;11.73;3.30;;;10.00;99.90;;;;;;5053156;28;20296;-64
2021/10/22 08:34:51;;;;;;;9.47;3.43;;;10.10;99.90;;;;;;5053148;28;20255;-69
2021/10/22 08:37:18;;;;;;;12.80;2.90;;;10.10;99.90;;;;;;5053039;28;20324;-65
2021/10/22 08:39:47;;;;;;;15.40;3.90;;;10.10;99.90;;;;;;5052215;28;20234;-66
2021/10/22 08:42:20;;;;;;;14.67;2.80;;;10.20;99.90;;;;;;5052518;28;20225;-67
2021/10/22 08:44:47;;;;;;;12.27;3.20;;;10.30;99.90;;;;;;5052806;28;20205;-67
2021/10/22 08:47:14;;;;;;;10.30;2.73;;;10.30;99.90;;;;;;5052735;28;20646;-70
2021/10/22 08:49:41;;;;;;;6.77;2.40;;;10.30;99.90;;;;;;5052451;28;20230;-69
2021/10/22 08:52:08;;;;;;;6.77;2.47;;;10.10;99.90;;;;;;5052847;28;20217;-62
2021/10/22 08:54:36;;;;;;;9.43;2.63;;;10.20;99.90;;;;;;5052407;28;20209;-70
2021/10/22 08:57:04;;;;;;;11.70;2.43;;;10.30;99.90;;;;;;5052052;28;20251;-63
2021/10/22 08:59:32;;;;;;;10.80;2.60;;;10.40;99.90;;;;;;5052391;28;20236;-63
2021/10/22 09:02:20;;;;;;;9.07;2.50;;;10.50;99.90;;;;;;5052247;28;20233;-63
2021/10/22 09:04:48;;;;;;;11.03;2.40;;;10.60;99.90;;;;;;5051624;28;20465;-63
2021/10/22 09:07:17;;;;;;;9.60;2.27;;;10.70;99.90;;;;;;5051401;28;20292;-62
2021/10/22 09:09:44;;;;;;;10.33;2.60;;;10.80;99.90;;;;;;5052290;28;20236;-62
2021/10/22 09:12:12;;;;;;;14.57;2.80;;;10.90;99.90;;;;;;5052093;28;20216;-62
2021/10/22 09:14:57;;;;;;;11.67;2.63;;;11.00;99.90;;;;;;5051765;28;20202;-63
2021/10/22 09:17:37;;;;;;;11.93;2.70;;;11.00;99.90;;;;;;5051960;28;20232;-63
2021/10/22 09:20:05;;;;;;;12.40;2.37;;;11.10;99.90;;;;;;5051386;28;20224;-63
2021/10/22 09:22:34;;;;;;;9.87;2.63;;;11.20;99.90;;;;;;5051743;28;20236;-62
2021/10/22 09:25:04;;;;;;;10.47;2.27;;;11.20;99.90;;;;;;5051332;28;20209;-62
2021/10/22 09:27:34;;;;;;;7.50;2.10;;;11.20;99.90;;;;;;5051476;28;20206;-62
2021/10/22 09:30:04;;;;;;;14.80;2.50;;;11.30;99.90;;;;;;5051166;28;20225;-62
2021/10/22 09:32:31;;;;;;;11.53;2.57;;;11.30;99.90;;;;;;5051181;28;20634;-62
2021/10/22 09:34:57;;;;;;;10.90;2.20;;;11.20;99.90;;;;;;5051136;28;20205;-62
2021/10/22 09:37:25;;;;;;;6.10;2.03;;;11.20;99.90;;;;;;5051145;28;20236;-62
2021/10/22 09:39:56;;;;;;;11.17;3.10;;;11.20;99.90;;;;;;5050834;28;20237;-63
2021/10/22 09:42:22;;;;;;;8.23;2.23;;;11.30;99.90;;;;;;5051426;28;20212;-63
2021/10/22 09:44:49;;;;;;;11.10;2.57;;;11.40;99.90;;;;;;5051004;28;20202;-63
2021/10/22 09:47:19;;;;;;;8.00;2.30;;;11.40;99.90;;;;;;5051276;28;20488;-63
2021/10/22 09:49:48;;;;;;;12.20;3.10;;;11.40;99.90;;;;;;5050991;28;20316;-63
2021/10/22 09:52:16;;;;;;;11.57;2.23;;;11.50;99.90;;;;;;5051023;28;20296;-62
2021/10/22 09:54:43;;;;;;;7.30;2.00;;;11.50;99.90;;;;;;5051103;28;20562;-63
2021/10/22 09:57:10;;;;;;;18.73;9.50;;;11.50;99.90;;;;;;5051107;28;20619;-62
2021/10/22 09:59:39;;;;;;;9.50;2.20;;;11.60;99.90;;;;;;5050753;28;20229;-62
2021/10/22 10:02:09;;;;;;;7.93;2.40;;;11.60;99.90;;;;;;5051677;28;20202;-62
2021/10/22 10:04:38;;;;;;;14.10;2.80;;;11.70;99.90;;;;;;5051947;28;20201;-63
2021/10/22 10:07:06;;;;;;;7.67;1.80;;;11.80;99.90;;;;;;5051747;28;20251;-63
2021/10/22 10:09:37;;;;;;;10.53;2.50;;;11.90;99.90;;;;;;5050578;28;20236;-63
2021/10/22 10:12:04;;;;;;;10.10;2.00;;;12.00;99.90;;;;;;5050557;28;20296;-63
2021/10/22 10:14:31;;;;;;;9.67;2.27;;;12.10;99.90;;;;;;5050594;28;20213;-63
2021/10/22 10:17:00;;;;;;;9.63;2.60;;;12.20;99.90;;;;;;5051959;28;20227;-63
2021/10/22 10:19:30;;;;;;;7.43;2.10;;;12.20;99.90;;;;;;5054758;28;20229;-63
2021/10/22 10:22:00;;;;;;;8.57;2.30;;;12.30;99.90;;;;;;5054854;28;20210;-63
2021/10/22 10:24:31;;;;;;;5.37;2.43;;;12.40;99.90;;;;;;5054368;28;20205;-64
2021/10/22 10:27:05;;;;;;;6.47;1.80;;;12.50;99.90;;;;;;5054705;28;20660;-63
2021/10/22 10:29:33;;;;;;;9.23;1.93;;;12.50;99.90;;;;;;5054824;28;20232;-63
2021/10/22 10:32:01;;;;;;;7.10;1.97;;;12.60;99.90;;;;;;5055062;28;20209;-63
2021/10/22 10:34:49;;;;;;;8.50;2.07;;;12.70;99.90;;;;;;5054331;28;20201;-62
2021/10/22 10:37:33;;;;;;;9.47;2.50;;;12.70;99.90;;;;;;5054769;28;20293;-63
2021/10/22 10:40:04;;;;;;;8.80;2.10;;;12.80;99.90;;;;;;5054389;28;20752;-63
2021/10/22 10:42:33;;;;;;;6.97;2.03;;;12.80;99.90;;;;;;5055022;28;20581;-62
2021/10/22 10:45:02;;;;;;;6.40;2.07;;;12.80;99.90;;;;;;5055180;28;20292;-64
2021/10/22 10:47:47;;;;;;;6.00;1.73;;;12.80;99.90;;;;;;5054406;28;20207;-63
2021/10/22 10:50:17;;;;;;;5.43;2.20;;;12.90;99.90;;;;;;5055374;28;20225;-63
2021/10/22 10:52:58;;;;;;;8.40;2.23;;;13.10;99.90;;;;;;5054807;28;20209;-64
2021/10/22 10:55:28;;;;;;;5.87;2.13;;;13.10;99.90;;;;;;5054135;28;20212;-63
2021/10/22 10:57:57;;;;;;;6.73;2.10;;;13.20;99.90;;;;;;5054244;28;20279;-63
2021/10/22 11:00:28;;;;;;;12.40;1.80;;;13.20;99.90;;;;;;5054576;28;20231;-63
2021/10/22 11:03:11;;;;;;;8.03;2.73;;;13.20;99.90;;;;;;5054500;28;20213;-63
2021/10/22 11:06:16;;;;;;;8.53;2.37;;;13.20;99.90;;;;;;5054369;28;20402;-64
2021/10/22 11:08:51;;;;;;;8.37;2.80;;;13.20;99.90;;;;;;5054764;28;20296;-63
2021/10/22 11:11:32;;;;;;;5.30;1.77;;;13.40;99.90;;;;;;5054097;28;20419;-63
2021/10/22 11:14:12;;;;;;;12.33;2.07;;;13.40;99.60;;;;;;5053995;28;20210;-63
2021/10/22 11:16:44;;;;;;;4.87;1.90;;;13.50;98.70;;;;;;5054120;28;20205;-63
2021/10/22 11:19:12;;;;;;;4.00;1.70;;;13.50;98.10;;;;;;5054181;28;20516;-63
2021/10/22 11:21:42;;;;;;;5.30;2.23;;;13.60;97.60;;;;;;5054477;28;20217;-63
2021/10/22 11:24:15;;;;;;;5.27;2.03;;;13.70;97.90;;;;;;5053931;28;20210;-63
2021/10/22 11:26:41;;;;;;;5.33;1.93;;;13.80;98.30;;;;;;5054366;28;20206;-63
2021/10/22 11:29:17;;;;;;;7.27;1.60;;;14.00;97.30;;;;;;5053395;28;20225;-63
2021/10/22 11:31:47;;;;;;;4.37;1.63;;;13.80;96.80;;;;;;5053990;28;20212;-65
2021/10/22 11:34:16;;;;;;;6.03;2.17;;;13.80;96.90;;;;;;5054687;28;20197;-63
2021/10/22 11:36:48;;;;;;;4.53;1.60;;;13.90;96.70;;;;;;5054388;28;20206;-64
2021/10/22 11:39:24;;;;;;;7.87;1.83;;;13.80;95.90;;;;;;5053992;28;20272;-63
2021/10/22 11:42:05;;;;;;;7.27;1.90;;;13.80;96.00;;;;;;5053578;28;20213;-63
2021/10/22 11:44:33;;;;;;;7.10;1.90;;;13.80;96.80;;;;;;5053339;28;20213;-63
2021/10/22 11:46:59;;;;;;;10.03;2.70;;;13.90;96.20;;;;;;5053202;28;20205;-64
2021/10/22 11:49:27;;;;;;;5.73;1.90;;;13.90;95.70;;;;;;5053112;28;20222;-63
2021/10/22 11:51:55;;;;;;;5.20;2.00;;;13.90;96.40;;;;;;5053130;28;20213;-63
2021/10/22 11:54:29;;;;;;;6.53;2.07;;;13.90;95.90;;;;;;5053369;28;20212;-65
2021/10/22 11:56:56;;;;;;;4.70;1.63;;;13.90;96.60;;;;;;5053213;28;20209;-64
2021/10/22 11:59:23;;;;;;;3.97;1.50;;;13.80;92.90;;;;;;5052998;28;20229;-63
2021/10/22 12:01:49;;;;;;;5.67;1.50;;;13.70;94.20;;;;;;5053283;28;20212;-63
2021/10/22 12:04:27;;;;;;;3.00;1.43;;;13.70;94.60;;;;;;5053075;28;20284;-63
2021/10/22 12:07:01;;;;;;;4.10;1.67;;;13.80;93.50;;;;;;5053227;28;20209;-64
2021/10/22 12:09:34;;;;;;;6.73;2.00;;;13.80;93.80;;;;;;5053162;28;20311;-63
2021/10/22 12:12:04;;;;;;;3.80;1.40;;;13.80;94.10;;;;;;5053377;28;20237;-63
2021/10/22 12:14:43;;;;;;;5.70;1.67;;;13.90;94.10;;;;;;5054109;28;20248;-63
2021/10/22 12:17:13;;;;;;;7.07;1.70;;;13.80;94.30;;;;;;5057206;28;20233;-61
2021/10/22 12:19:41;;;;;;;3.87;1.43;;;13.90;94.40;;;;;;5057045;28;20253;-61
2021/10/22 12:22:08;;;;;;;7.70;1.60;;;13.90;93.70;;;;;;5054434;28;20685;-62
2021/10/22 12:24:41;;;;;;;5.17;1.40;;;13.90;93.20;;;;;;5052601;28;20213;-62
2021/10/22 12:27:09;;;;;;;6.03;1.60;;;14.00;93.40;;;;;;5052769;28;20484;-64
2021/10/22 12:29:57;;;;;;;4.47;1.43;;;14.10;93.60;;;;;;5052516;28;20237;-61
2021/10/22 12:32:43;;;;;;;4.63;1.70;;;14.10;93.50;;;;;;5052716;28;20209;-62
2021/10/22 12:35:19;;;;;;;3.87;1.37;;;14.10;93.40;;;;;;5052582;28;20206;-63
2021/10/22 12:37:47;;;;;;;5.57;1.80;;;14.10;93.10;;;;;;5052709;28;20256;-63
2021/10/22 12:40:22;;;;;;;5.57;2.23;;;14.00;93.10;;;;;;5086740;22;20286;-58
2021/10/22 12:43:09;;;;;;;4.57;1.50;;;14.10;92.40;;;;;;5072423;28;20212;-58
2021/10/22 12:45:46;;;;;;;4.03;1.20;;;14.20;92.20;;;;;;5072119;28;20636;-57
2021/10/22 12:48:14;;;;;;;5.90;1.30;;;14.20;92.20;;;;;;5072117;28;20201;-58
2021/10/22 12:50:41;;;;;;;6.20;1.77;;;14.20;92.40;;;;;;5072305;28;20228;-58
2021/10/22 12:53:12;;;;;;;7.13;1.80;;;14.20;92.00;;;;;;5072684;28;20212;-59
2021/10/22 12:55:41;;;;;;;7.57;1.57;;;14.20;92.60;;;;;;5072706;28;20715;-59
2021/10/22 12:58:17;;;;;;;5.80;1.40;;;14.20;92.80;;;;;;5072251;28;20224;-56
2021/10/22 13:00:45;;;;;;;5.30;1.60;;;14.20;93.50;;;;;;5072143;28;20231;-58
2021/10/22 13:03:12;;;;;;;3.63;1.33;;;14.20;93.50;;;;;;5072097;28;20677;-57